createdAt,value
2023-01-26T00:00:30.921Z,102219.63
2023-01-26T00:02:33.964Z,102220.47
2023-01-26T00:04:38.357Z,102217.03
2023-01-26T00:06:41.381Z,102212.75
2023-01-26T00:08:46.255Z,102217.88
2023-01-26T00:10:51.229Z,102214.44
2023-01-26T00:12:54.239Z,102212.72
2023-01-26T00:14:57.235Z,102212.72
2023-01-26T00:17:00.266Z,102205.88
2023-01-26T00:19:03.714Z,102203.31
2023-01-26T00:21:09.772Z,102202.44
2023-01-26T00:23:12.765Z,102201.59
2023-01-26T00:25:15.915Z,102193.03
2023-01-26T00:27:19.052Z,102204.19
2023-01-26T00:29:22.207Z,102203.31
2023-01-26T00:31:27.424Z,102201.63
2023-01-26T00:33:30.577Z,102193.03
2023-01-26T00:35:33.552Z,102186.19
2023-01-26T00:37:39.451Z,102186.19
2023-01-26T00:39:42.505Z,102185.31
2023-01-26T00:42:03.199Z,102176.75
2023-01-26T00:44:06.304Z,102186.19
2023-01-26T00:46:09.755Z,102181.91
2023-01-26T00:48:12.928Z,102177.63
2023-01-26T00:50:17.395Z,102173.31
2023-01-26T00:52:20.724Z,102180.19
2023-01-26T00:54:25.300Z,102174.19
2023-01-26T00:56:28.846Z,102188.75
2023-01-26T00:58:31.980Z,102178.44
2023-01-26T01:00:36.566Z,102175.03
2023-01-26T01:02:40.837Z,102172.47
2023-01-26T01:04:44.098Z,102164.75
2023-01-26T01:06:47.381Z,102171.63
2023-01-26T01:08:50.682Z,102159.59
2023-01-26T01:11:04.133Z,102167.31
2023-01-26T01:13:07.355Z,102163.88
2023-01-26T01:15:10.813Z,102162.16
2023-01-26T01:17:15.604Z,102159.59
2023-01-26T01:19:19.982Z,102156.16
2023-01-26T01:21:24.693Z,102159.59
2023-01-26T01:23:29.979Z,102157.03
2023-01-26T01:25:34.801Z,102153.59
2023-01-26T01:27:39.706Z,102147.63
2023-01-26T01:29:43.155Z,102155.34
2023-01-26T01:31:46.475Z,102149.31
2023-01-26T01:33:49.864Z,102145.91
2023-01-26T01:35:59.714Z,102143.31
2023-01-26T01:38:03.677Z,102153.59
2023-01-26T01:40:08.328Z,102141.59
2023-01-26T01:42:11.845Z,102151.00
2023-01-26T01:44:20.385Z,102146.72
2023-01-26T01:46:32.189Z,102148.44
2023-01-26T01:48:43.967Z,102149.28
2023-01-26T01:50:47.691Z,102147.56
2023-01-26T01:52:51.102Z,102144.16
2023-01-26T01:54:58.038Z,102140.72
2023-01-26T01:57:06.181Z,102140.72
2023-01-26T01:59:11.608Z,102136.47
2023-01-26T02:01:16.712Z,102143.31
2023-01-26T02:03:21.386Z,102140.75
2023-01-26T02:05:34.104Z,102146.75
2023-01-26T02:07:39.918Z,102139.91
2023-01-26T02:10:02.820Z,102144.19
2023-01-26T02:12:07.591Z,102140.75
2023-01-26T02:14:12.967Z,102125.34
2023-01-26T02:16:18.377Z,102127.06
2023-01-26T02:18:21.848Z,102133.09
2023-01-26T02:20:32.246Z,102130.50
2023-01-26T02:22:46.824Z,102128.78
2023-01-26T02:24:53.873Z,102124.50
2023-01-26T02:27:00.042Z,102125.38
2023-01-26T02:29:07.997Z,102117.66
2023-01-26T02:31:14.318Z,102118.53
2023-01-26T02:33:19.246Z,102124.53
2023-01-26T02:35:22.954Z,102115.13
2023-01-26T02:37:26.212Z,102121.13
2023-01-26T02:39:42.409Z,102112.56
2023-01-26T02:42:04.458Z,102118.59
2023-01-26T02:44:12.453Z,102116.88
2023-01-26T02:46:15.712Z,102113.44
2023-01-26T02:48:40.088Z,102117.75
2023-01-26T02:50:42.416Z,102112.59
2023-01-26T02:52:45.658Z,102108.28
2023-01-26T02:55:12.674Z,102104.00
2023-01-26T02:57:15.991Z,102104.00
2023-01-26T02:59:22.060Z,102104.88
2023-01-26T03:01:25.269Z,102092.00
2023-01-26T03:03:41.747Z,102098.00
2023-01-26T03:05:45.674Z,102098.00
2023-01-26T03:07:49.133Z,102092.84
2023-01-26T03:09:52.385Z,102089.44
2023-01-26T03:11:55.686Z,102094.59
2023-01-26T03:13:58.919Z,102098.03
2023-01-26T03:16:07.157Z,102094.59
2023-01-26T03:18:28.789Z,102094.59
2023-01-26T03:20:49.556Z,102093.72
2023-01-26T03:23:09.274Z,102090.28
2023-01-26T03:25:29.907Z,102086.00
2023-01-26T03:27:40.176Z,102091.16
2023-01-26T03:29:43.475Z,102083.44
2023-01-26T03:31:48.559Z,102084.28
2023-01-26T03:33:51.863Z,102087.72
2023-01-26T03:35:56.144Z,102087.72
2023-01-26T03:38:00.410Z,102087.72
2023-01-26T03:40:34.339Z,102078.31
2023-01-26T03:42:55.461Z,102076.59
2023-01-26T03:45:16.066Z,102070.59
2023-01-26T03:47:38.665Z,102070.59
2023-01-26T03:49:59.293Z,102068.88
2023-01-26T03:52:19.963Z,102072.28
2023-01-26T03:54:42.019Z,102067.16
2023-01-26T03:56:45.485Z,102062.84
2023-01-26T03:58:53.187Z,102068.00
2023-01-26T04:00:58.964Z,102068.00
2023-01-26T04:03:20.805Z,102067.16
2023-01-26T04:05:41.441Z,102065.41
2023-01-26T04:08:02.287Z,102065.44
2023-01-26T04:10:06.138Z,102068.00
2023-01-26T04:12:10.678Z,102072.31
2023-01-26T04:14:49.994Z,102065.44
2023-01-26T04:17:15.212Z,102061.16
2023-01-26T04:19:37.608Z,102056.84
2023-01-26T04:21:40.859Z,102062.84
2023-01-26T04:23:58.490Z,102063.72
2023-01-26T04:26:01.716Z,102064.56
2023-01-26T04:28:06.004Z,102060.28
2023-01-26T04:30:11.988Z,102068.03
2023-01-26T04:32:15.794Z,102061.16
2023-01-26T04:34:20.573Z,102062.00
2023-01-26T04:36:23.847Z,102063.72
2023-01-26T04:38:28.197Z,102063.72
2023-01-26T04:40:31.527Z,102060.31
2023-01-26T04:42:34.784Z,102056.88
2023-01-26T04:44:39.781Z,102056.88
2023-01-26T04:46:43.078Z,102059.47
2023-01-26T04:48:48.850Z,102053.47
2023-01-26T04:50:56.217Z,102052.63
2023-01-26T04:53:00.784Z,102056.91
2023-01-26T04:55:04.947Z,102056.06
2023-01-26T04:57:11.101Z,102051.78
2023-01-26T04:59:17.386Z,102051.78
2023-01-26T05:01:21.520Z,102054.34
2023-01-26T05:03:26.060Z,102046.63
2023-01-26T05:05:29.332Z,102050.06
2023-01-26T05:07:34.155Z,102046.59
2023-01-26T05:09:38.801Z,102044.03
2023-01-26T05:12:18.670Z,102055.19
2023-01-26T05:14:42.001Z,102050.03
2023-01-26T05:17:05.624Z,102045.75
2023-01-26T05:19:43.990Z,102047.47
2023-01-26T05:22:13.314Z,102041.47
2023-01-26T05:24:25.850Z,102046.63
2023-01-26T05:26:38.002Z,102048.34
2023-01-26T05:28:45.547Z,102050.06
2023-01-26T05:30:48.945Z,102048.34
2023-01-26T05:32:52.335Z,102049.22
2023-01-26T05:34:55.610Z,102034.63
2023-01-26T05:36:58.911Z,102043.19
2023-01-26T05:39:02.231Z,102036.34
2023-01-26T05:41:11.060Z,102038.06
2023-01-26T05:43:28.502Z,102042.34
2023-01-26T05:45:45.442Z,102041.50
2023-01-26T05:47:50.605Z,102043.22
2023-01-26T05:49:54.613Z,102037.19
2023-01-26T05:52:02.293Z,102036.34
2023-01-26T05:54:06.654Z,102049.22
2023-01-26T05:56:11.868Z,102051.78
2023-01-26T05:58:19.985Z,102055.22
2023-01-26T06:00:24.891Z,102050.94
2023-01-26T06:02:35.998Z,102050.06
2023-01-26T06:04:39.918Z,102055.22
2023-01-26T06:06:43.826Z,102044.06
2023-01-26T06:09:08.481Z,102048.34
2023-01-26T06:11:29.943Z,102056.94
2023-01-26T06:13:45.393Z,102056.94
2023-01-26T06:16:01.963Z,102053.50
2023-01-26T06:18:06.786Z,102049.22
2023-01-26T06:20:12.663Z,102054.34
2023-01-26T06:22:16.356Z,102058.66
2023-01-26T06:24:23.920Z,102048.34
2023-01-26T06:26:29.617Z,102054.38
2023-01-26T06:28:34.218Z,102056.94
2023-01-26T06:30:38.057Z,102048.34
2023-01-26T06:32:48.567Z,102053.50
2023-01-26T06:34:54.710Z,102060.34
2023-01-26T06:36:58.784Z,102060.34
2023-01-26T06:39:07.623Z,102068.97
2023-01-26T06:41:11.954Z,102070.66
2023-01-26T06:43:16.747Z,102065.50
2023-01-26T06:45:20.833Z,102070.66
2023-01-26T06:47:25.270Z,102072.38
2023-01-26T06:49:28.583Z,102065.50
2023-01-26T06:51:59.065Z,102068.06
2023-01-26T06:54:16.405Z,102062.06
2023-01-26T06:56:37.351Z,102056.06
2023-01-26T06:58:58.756Z,102057.78
2023-01-26T07:01:24.354Z,102054.34
2023-01-26T07:03:27.790Z,102053.50
2023-01-26T07:05:31.114Z,102050.91
2023-01-26T07:07:34.288Z,102056.94
2023-01-26T07:09:37.576Z,102060.34
2023-01-26T07:11:40.914Z,102069.81
2023-01-26T07:13:44.227Z,102067.22
2023-01-26T07:15:48.930Z,102068.09
2023-01-26T07:17:52.041Z,102073.25
2023-01-26T07:19:55.205Z,102074.97
2023-01-26T07:21:58.726Z,102075.81
2023-01-26T07:24:01.990Z,102072.38
2023-01-26T07:26:05.636Z,102069.81
2023-01-26T07:28:10.309Z,102066.38
2023-01-26T07:30:14.828Z,102069.81
2023-01-26T07:32:19.496Z,102068.97
2023-01-26T07:34:22.759Z,102081.84
2023-01-26T07:36:26.347Z,102084.38
2023-01-26T07:38:30.455Z,102089.53
2023-01-26T07:40:34.452Z,102091.25
2023-01-26T07:42:37.756Z,102089.53
2023-01-26T07:44:52.283Z,102086.09
2023-01-26T07:46:55.890Z,102081.81
2023-01-26T07:49:00.656Z,102093.81
2023-01-26T07:51:05.563Z,102091.25
2023-01-26T07:53:09.880Z,102081.81
2023-01-26T07:55:13.038Z,102082.66
2023-01-26T07:57:16.364Z,102084.38
2023-01-26T07:59:19.909Z,102074.94
2023-01-26T08:01:28.139Z,102080.09
2023-01-26T08:03:32.040Z,102084.38
2023-01-26T08:05:38.830Z,102084.38
2023-01-26T08:07:45.863Z,102088.69
2023-01-26T08:09:50.714Z,102091.25
2023-01-26T08:11:54.455Z,102079.22
2023-01-26T08:13:57.872Z,102082.63
2023-01-26T08:16:05.734Z,102093.81
2023-01-26T08:18:08.995Z,102099.81
2023-01-26T08:20:14.323Z,102085.22
2023-01-26T08:22:18.998Z,102104.97
2023-01-26T08:24:22.234Z,102108.41
2023-01-26T08:26:25.715Z,102110.13
2023-01-26T08:28:29.089Z,102104.09
2023-01-26T08:30:32.289Z,102098.09
2023-01-26T08:32:35.756Z,102102.38
2023-01-26T08:34:41.323Z,102098.97
2023-01-26T08:36:45.158Z,102094.66
2023-01-26T08:38:49.849Z,102104.09
2023-01-26T08:40:54.546Z,102113.56
2023-01-26T08:43:00.499Z,102110.97
2023-01-26T08:45:03.648Z,102113.56
2023-01-26T08:47:06.938Z,102110.97
2023-01-26T08:49:10.648Z,102107.53
2023-01-26T08:51:13.776Z,102113.56
2023-01-26T08:53:17.075Z,102111.84
2023-01-26T08:55:22.650Z,102110.13
2023-01-26T08:57:26.292Z,102108.41
2023-01-26T08:59:29.638Z,102114.41
2023-01-26T09:01:33.006Z,102107.53
2023-01-26T09:03:36.279Z,102110.13
2023-01-26T09:05:41.793Z,102110.13
2023-01-26T09:07:45.367Z,102112.69
2023-01-26T09:09:48.544Z,102107.53
2023-01-26T09:11:56.533Z,102103.25
2023-01-26T09:14:00.116Z,102102.38
2023-01-26T09:16:07.573Z,102102.38
2023-01-26T09:18:18.371Z,102102.38
2023-01-26T09:20:24.506Z,102101.50
2023-01-26T09:22:28.073Z,102091.19
2023-01-26T09:24:31.378Z,102098.06
2023-01-26T09:26:34.592Z,102108.34
2023-01-26T09:28:40.706Z,102110.06
2023-01-26T09:30:44.026Z,102114.38
2023-01-26T09:32:47.233Z,102107.50
2023-01-26T09:34:50.375Z,102101.47
2023-01-26T09:36:53.645Z,102084.28
2023-01-26T09:38:57.767Z,102080.84
2023-01-26T09:41:08.521Z,102080.84
2023-01-26T09:43:22.727Z,102098.03
2023-01-26T09:45:33.189Z,102091.97
2023-01-26T09:47:51.373Z,102083.34
2023-01-26T09:50:00.990Z,102086.78
2023-01-26T09:52:10.707Z,102079.03
2023-01-26T09:54:24.718Z,102090.19
2023-01-26T09:56:32.567Z,102091.06
2023-01-26T09:58:40.769Z,102091.06
2023-01-26T10:00:48.978Z,102080.72
2023-01-26T10:03:04.856Z,102082.47
2023-01-26T10:05:16.102Z,102091.06
2023-01-26T10:07:19.652Z,102086.75
2023-01-26T10:09:27.814Z,102084.19
2023-01-26T10:11:37.352Z,102079.00
2023-01-26T10:13:42.341Z,102077.28
2023-01-26T10:15:50.997Z,102079.88
2023-01-26T10:17:56.016Z,102082.44
2023-01-26T10:20:04.989Z,102086.72
2023-01-26T10:22:16.486Z,102079.81
2023-01-26T10:24:24.027Z,102077.25
2023-01-26T10:26:32.245Z,102066.91
2023-01-26T10:28:37.256Z,102066.91
2023-01-26T10:30:40.914Z,102065.19
2023-01-26T10:32:48.174Z,102065.16
2023-01-26T10:34:53.288Z,102059.13
2023-01-26T10:37:03.140Z,102054.81
2023-01-26T10:39:07.518Z,102053.94
2023-01-26T10:41:27.430Z,102059.03
2023-01-26T10:43:32.917Z,102063.31
2023-01-26T10:45:46.703Z,102059.84
2023-01-26T10:48:04.009Z,102068.44
2023-01-26T10:50:23.241Z,102066.69
2023-01-26T10:52:26.505Z,102068.41
2023-01-26T10:54:29.943Z,102079.63
2023-01-26T10:56:36.337Z,102070.16
2023-01-26T10:58:48.085Z,102074.44
2023-01-26T11:00:57.055Z,102085.63
2023-01-26T11:03:07.864Z,102081.34
2023-01-26T11:05:22.293Z,102077.91
2023-01-26T11:07:27.940Z,102077.88
2023-01-26T11:09:32.124Z,102080.44
2023-01-26T11:11:35.347Z,102075.28
2023-01-26T11:13:39.102Z,102064.91
2023-01-26T11:15:44.141Z,102071.75
2023-01-26T11:18:01.008Z,102071.75
2023-01-26T11:20:26.879Z,102066.56
2023-01-26T11:22:35.047Z,102064.81
2023-01-26T11:24:46.641Z,102061.38
2023-01-26T11:26:58.717Z,102054.44
2023-01-26T11:29:18.613Z,102050.97
2023-01-26T11:31:34.490Z,102048.31
2023-01-26T11:33:47.156Z,102051.75
2023-01-26T11:36:01.728Z,102043.97
2023-01-26T11:38:19.964Z,102043.09
2023-01-26T11:40:33.369Z,102043.94
2023-01-26T11:42:45.878Z,102041.31
2023-01-26T11:45:07.592Z,102041.31
2023-01-26T11:47:23.910Z,102031.84
2023-01-26T11:49:45.423Z,102037.88
2023-01-26T11:52:00.518Z,102024.97
2023-01-26T11:54:25.087Z,102022.41
2023-01-26T11:56:39.276Z,102030.16
2023-01-26T11:58:45.816Z,102024.97
2023-01-26T12:00:53.329Z,102022.34
2023-01-26T12:03:03.066Z,102030.94
2023-01-26T12:05:15.718Z,102028.31
2023-01-26T12:07:24.155Z,102029.16
2023-01-26T12:09:37.148Z,102025.72
2023-01-26T12:11:43.913Z,102020.56
2023-01-26T12:13:49.932Z,102029.16
2023-01-26T12:15:58.648Z,102026.56
2023-01-26T12:18:07.435Z,102019.69
2023-01-26T12:20:29.850Z,102028.31
2023-01-26T12:22:38.232Z,102028.34
2023-01-26T12:25:16.264Z,102019.78
2023-01-26T12:27:17.876Z,102007.75
2023-01-26T12:29:27.266Z,101996.59
2023-01-26T12:31:36.428Z,101997.47
2023-01-26T12:33:40.287Z,101995.78
2023-01-26T12:35:54.501Z,101994.06
2023-01-26T12:38:17.266Z,101992.34
2023-01-26T12:40:32.646Z,101990.63
2023-01-26T12:42:45.701Z,101982.00
2023-01-26T12:44:53.938Z,101981.13
2023-01-26T12:47:01.029Z,101981.13
2023-01-26T12:49:08.632Z,101981.97
2023-01-26T12:51:19.019Z,101993.16
2023-01-26T12:53:30.283Z,101994.00
2023-01-26T12:55:40.618Z,101985.34
2023-01-26T12:57:49.869Z,101987.91
2023-01-26T12:59:53.604Z,101984.44
2023-01-26T13:01:57.196Z,101992.09
2023-01-26T13:04:05.584Z,101977.44
2023-01-26T13:06:23.218Z,101976.53
2023-01-26T13:08:53.895Z,101976.50
2023-01-26T13:10:57.825Z,101971.31
2023-01-26T13:13:02.724Z,101964.41
2023-01-26T13:15:08.364Z,101962.63
2023-01-26T13:17:55.979Z,101966.03
2023-01-26T13:20:00.234Z,101970.28
2023-01-26T13:22:03.538Z,101969.41
2023-01-26T13:24:43.303Z,101972.81
2023-01-26T13:26:47.807Z,101957.28
2023-01-26T13:28:51.177Z,101965.88
2023-01-26T13:31:05.201Z,101964.13
2023-01-26T13:33:23.135Z,101962.38
2023-01-26T13:35:28.128Z,101967.53
2023-01-26T13:37:36.028Z,101956.28
2023-01-26T13:39:45.376Z,101965.75
2023-01-26T13:41:49.263Z,101970.91
2023-01-26T13:43:55.897Z,101980.31
2023-01-26T13:46:10.932Z,101981.16
2023-01-26T13:48:17.023Z,101978.56
2023-01-26T13:50:24.366Z,101980.28
2023-01-26T13:52:29.285Z,101983.72
2023-01-26T13:54:32.450Z,101980.25
2023-01-26T13:56:39.025Z,101989.72
2023-01-26T13:58:42.249Z,101994.03
2023-01-26T14:00:59.633Z,101992.28
2023-01-26T14:03:02.863Z,101988.78
2023-01-26T14:05:06.606Z,101981.88
2023-01-26T14:07:17.807Z,101982.72
2023-01-26T14:09:21.449Z,101986.13
2023-01-26T14:11:27.757Z,101984.38
2023-01-26T14:13:34.927Z,101978.31
2023-01-26T14:15:38.136Z,101980.84
2023-01-26T14:17:50.315Z,101982.53
2023-01-26T14:19:53.513Z,101985.09
2023-01-26T14:21:58.237Z,101980.75
2023-01-26T14:24:02.862Z,101982.47
2023-01-26T14:26:12.057Z,101982.47
2023-01-26T14:28:17.127Z,101979.84
2023-01-26T14:30:28.021Z,101978.94
2023-01-26T14:32:32.338Z,101979.75
2023-01-26T14:34:35.530Z,101989.25
2023-01-26T14:36:39.498Z,101986.59
2023-01-26T14:38:44.657Z,101996.94
2023-01-26T14:40:49.368Z,101987.44
2023-01-26T14:42:55.924Z,101989.16
2023-01-26T14:44:59.119Z,101991.69
2023-01-26T14:47:08.279Z,101995.13
2023-01-26T14:49:17.749Z,102004.63
2023-01-26T14:51:23.398Z,102007.19
2023-01-26T14:53:27.093Z,102007.19
2023-01-26T14:55:32.714Z,102011.50
2023-01-26T14:57:35.970Z,102013.22
2023-01-26T14:59:41.887Z,102014.09
2023-01-26T15:01:45.676Z,102023.59
2023-01-26T15:03:52.367Z,102015.81
2023-01-26T15:06:07.373Z,102011.50
2023-01-26T15:08:21.794Z,102015.81
2023-01-26T15:10:43.257Z,102020.97
2023-01-26T15:12:45.980Z,102016.69
2023-01-26T15:14:52.120Z,102017.53
2023-01-26T15:16:56.175Z,102020.97
2023-01-26T15:19:02.190Z,102017.53
2023-01-26T15:21:14.487Z,102021.00
2023-01-26T15:23:29.729Z,102017.53
2023-01-26T15:25:34.668Z,102016.69
2023-01-26T15:27:38.330Z,102019.25
2023-01-26T15:29:41.598Z,102016.69
2023-01-26T15:31:44.960Z,102011.50
2023-01-26T15:33:50.902Z,102018.44
2023-01-26T15:35:59.951Z,102013.28
2023-01-26T15:38:04.856Z,102022.81
2023-01-26T15:40:11.843Z,102022.81
2023-01-26T15:42:22.161Z,102020.22
2023-01-26T15:44:25.289Z,102016.78
2023-01-26T15:46:28.834Z,102012.50
2023-01-26T15:48:35.069Z,102006.47
2023-01-26T15:50:38.373Z,102006.47
2023-01-26T15:52:42.953Z,102009.94
2023-01-26T15:54:46.539Z,102013.41
2023-01-26T15:56:49.733Z,102015.16
2023-01-26T15:58:52.875Z,102015.19
2023-01-26T16:00:56.091Z,102012.59
2023-01-26T16:02:59.595Z,102008.31
2023-01-26T16:05:02.770Z,102013.47
2023-01-26T16:07:10.851Z,102022.13
2023-01-26T16:09:15.432Z,102021.25
2023-01-26T16:11:19.016Z,102023.84
2023-01-26T16:13:22.155Z,102020.41
2023-01-26T16:15:39.251Z,102034.19
2023-01-26T16:17:42.564Z,102027.28
2023-01-26T16:19:46.168Z,102035.06
2023-01-26T16:21:49.397Z,102030.75
2023-01-26T16:23:53.528Z,102030.75
2023-01-26T16:25:58.172Z,102035.06
2023-01-26T16:28:01.586Z,102038.50
2023-01-26T16:30:05.260Z,102045.38
2023-01-26T16:32:27.367Z,102046.25
2023-01-26T16:34:30.916Z,102053.13
2023-01-26T16:36:34.157Z,102052.25
2023-01-26T16:38:37.430Z,102058.28
2023-01-26T16:40:41.724Z,102051.38
2023-01-26T16:42:50.284Z,102057.44
2023-01-26T16:44:53.616Z,102066.03
2023-01-26T16:46:56.762Z,102061.75
2023-01-26T16:49:00.062Z,102061.75
2023-01-26T16:51:15.499Z,102078.09
2023-01-26T16:53:23.622Z,102078.97
2023-01-26T16:55:27.105Z,102088.47
2023-01-26T16:57:30.228Z,102087.59
2023-01-26T16:59:34.727Z,102084.13
2023-01-26T17:01:39.837Z,102078.94
2023-01-26T17:03:43.098Z,102081.50
2023-01-26T17:05:46.490Z,102085.81
2023-01-26T17:07:50.991Z,102084.09
2023-01-26T17:09:54.150Z,102090.97
2023-01-26T17:11:57.302Z,102088.34
2023-01-26T17:14:00.652Z,102097.88
2023-01-26T17:16:05.712Z,102091.84
2023-01-26T17:18:12.094Z,102097.88
2023-01-26T17:20:19.182Z,102095.28
2023-01-26T17:22:23.473Z,102103.03
2023-01-26T17:24:26.725Z,102104.72
2023-01-26T17:26:29.974Z,102111.63
2023-01-26T17:28:33.201Z,102120.22
2023-01-26T17:30:36.805Z,102114.19
2023-01-26T17:32:43.215Z,102118.47
2023-01-26T17:34:46.666Z,102113.28
2023-01-26T17:36:49.841Z,102118.44
2023-01-26T17:38:53.170Z,102115.81
2023-01-26T17:40:56.823Z,102108.91
2023-01-26T17:43:00.637Z,102105.47
2023-01-26T17:45:05.045Z,102102.88
2023-01-26T17:47:09.359Z,102100.28
2023-01-26T17:49:13.992Z,102094.22
2023-01-26T17:51:19.397Z,102094.22
2023-01-26T17:53:24.409Z,102094.22
2023-01-26T17:55:27.608Z,102098.50
2023-01-26T17:57:30.796Z,102092.47
2023-01-26T17:59:34.045Z,102092.47
2023-01-26T18:01:37.299Z,102095.03
2023-01-26T18:03:43.237Z,102093.31
2023-01-26T18:05:54.717Z,102094.22
2023-01-26T18:07:57.904Z,102086.44
2023-01-26T18:10:01.141Z,102087.28
2023-01-26T18:12:04.535Z,102092.47
2023-01-26T18:14:07.784Z,102086.41
2023-01-26T18:16:13.324Z,102090.75
2023-01-26T18:18:17.134Z,102099.38
2023-01-26T18:20:20.327Z,102101.06
2023-01-26T18:22:25.153Z,102105.41
2023-01-26T18:24:28.394Z,102104.53
2023-01-26T18:26:34.439Z,102114.03
2023-01-26T18:28:37.683Z,102114.88
2023-01-26T18:30:41.352Z,102117.44
2023-01-26T18:32:44.591Z,102119.16
2023-01-26T18:34:47.919Z,102120.88
2023-01-26T18:36:51.234Z,102112.25
2023-01-26T18:38:57.931Z,102122.59
2023-01-26T18:41:01.063Z,102124.31
2023-01-26T18:43:04.828Z,102118.25
2023-01-26T18:45:09.334Z,102125.16
2023-01-26T18:47:12.970Z,102119.97
2023-01-26T18:49:16.112Z,102130.31
2023-01-26T18:51:19.265Z,102131.19
2023-01-26T18:53:22.507Z,102126.81
2023-01-26T18:55:27.268Z,102131.13
2023-01-26T18:57:30.458Z,102135.44
2023-01-26T18:59:33.700Z,102138.00
2023-01-26T19:01:36.912Z,102138.88
2023-01-26T19:03:42.613Z,102140.56
2023-01-26T19:05:46.766Z,102137.13
2023-01-26T19:07:49.885Z,102140.56
2023-01-26T19:09:53.055Z,102146.63
2023-01-26T19:11:58.342Z,102151.78
2023-01-26T19:14:02.440Z,102144.88
2023-01-26T19:16:08.785Z,102148.31
2023-01-26T19:18:12.106Z,102151.78
2023-01-26T19:20:15.336Z,102149.19
2023-01-26T19:22:18.577Z,102153.50
2023-01-26T19:24:21.864Z,102147.47
2023-01-26T19:26:27.931Z,102160.41
2023-01-26T19:28:32.494Z,102148.34
2023-01-26T19:30:36.041Z,102157.81
2023-01-26T19:32:59.327Z,102156.13
2023-01-26T19:35:02.856Z,102154.38
2023-01-26T19:37:06.094Z,102162.13
2023-01-26T19:39:10.987Z,102161.25
2023-01-26T19:41:14.360Z,102154.38
2023-01-26T19:43:19.025Z,102163.84
2023-01-26T19:45:23.581Z,102167.28
2023-01-26T19:47:26.792Z,102155.22
2023-01-26T19:49:29.988Z,102157.78
2023-01-26T19:51:33.201Z,102158.63
2023-01-26T19:53:37.723Z,102168.97
2023-01-26T19:55:40.923Z,102168.06
2023-01-26T19:57:44.174Z,102172.38
2023-01-26T19:59:47.403Z,102174.94
2023-01-26T20:01:51.959Z,102176.66
2023-01-26T20:03:58.951Z,102171.47
2023-01-26T20:06:02.958Z,102174.91
2023-01-26T20:08:06.369Z,102180.97
2023-01-26T20:10:10.933Z,102185.25
2023-01-26T20:12:14.081Z,102174.91
2023-01-26T20:14:17.310Z,102187.00
2023-01-26T20:16:20.521Z,102191.31
2023-01-26T20:18:25.384Z,102186.13
2023-01-26T20:20:28.618Z,102181.78
2023-01-26T20:22:34.143Z,102193.00
2023-01-26T20:24:37.347Z,102190.41
2023-01-26T20:26:42.640Z,102192.94
2023-01-26T20:28:46.691Z,102191.19
2023-01-26T20:30:49.933Z,102192.06
2023-01-26T20:32:55.166Z,102189.47
2023-01-26T20:35:00.077Z,102197.22
2023-01-26T20:37:04.158Z,102192.03
2023-01-26T20:39:08.805Z,102191.19
2023-01-26T20:41:14.520Z,102192.03
2023-01-26T20:43:17.865Z,102191.16
2023-01-26T20:45:21.221Z,102186.84
2023-01-26T20:47:24.418Z,102193.72
2023-01-26T20:49:27.736Z,102190.25
2023-01-26T20:51:35.940Z,102193.72
2023-01-26T20:53:39.392Z,102202.34
2023-01-26T20:55:42.877Z,102197.16
2023-01-26T20:57:47.180Z,102203.19
2023-01-26T20:59:50.415Z,102197.16
2023-01-26T21:01:53.699Z,102201.47
2023-01-26T21:03:56.985Z,102204.06
2023-01-26T21:06:00.217Z,102189.38
2023-01-26T21:08:05.072Z,102179.84
2023-01-26T21:10:09.305Z,102195.41
2023-01-26T21:12:12.562Z,102187.59
2023-01-26T21:14:15.797Z,102181.56
2023-01-26T21:16:23.178Z,102181.56
2023-01-26T21:18:26.519Z,102188.44
2023-01-26T21:20:29.871Z,102191.03
2023-01-26T21:22:33.076Z,102197.03
2023-01-26T21:24:38.034Z,102197.88
2023-01-26T21:26:41.200Z,102196.13
2023-01-26T21:28:44.695Z,102196.97
2023-01-26T21:30:47.897Z,102196.88
2023-01-26T21:32:52.717Z,102203.75
2023-01-26T21:34:55.920Z,102201.16
2023-01-26T21:36:59.060Z,102207.19
2023-01-26T21:39:02.261Z,102205.41
2023-01-26T21:41:29.665Z,102207.13
2023-01-26T21:43:32.893Z,102214.03
2023-01-26T21:45:54.272Z,102210.56
2023-01-26T21:48:14.821Z,102208.81
2023-01-26T21:50:38.589Z,102203.63
2023-01-26T21:52:58.748Z,102201.88
2023-01-26T21:55:01.927Z,102206.19
2023-01-26T21:57:28.932Z,102207.88
2023-01-26T21:59:31.173Z,102213.94
2023-01-26T22:01:36.611Z,102204.41
2023-01-26T22:03:40.121Z,102208.72
2023-01-26T22:05:52.287Z,102206.13
2023-01-26T22:07:55.811Z,102205.25
2023-01-26T22:09:58.985Z,102210.44
2023-01-26T22:12:03.322Z,102219.06
2023-01-26T22:14:08.336Z,102213.88
2023-01-26T22:16:11.567Z,102208.69
2023-01-26T22:18:14.964Z,102224.22
2023-01-26T22:20:18.735Z,102210.41
2023-01-26T22:22:21.974Z,102207.75
2023-01-26T22:24:25.296Z,102208.59
2023-01-26T22:26:28.753Z,102212.91
2023-01-26T22:28:34.874Z,102201.66
2023-01-26T22:30:39.471Z,102205.97
2023-01-26T22:32:43.870Z,102198.19
2023-01-26T22:34:47.036Z,102205.09
2023-01-26T22:36:50.461Z,102200.75
2023-01-26T22:38:54.457Z,102195.56
2023-01-26T22:40:57.603Z,102195.53
2023-01-26T22:43:00.930Z,102193.78
2023-01-26T22:45:04.485Z,102192.00
2023-01-26T22:47:09.137Z,102191.16
2023-01-26T22:49:12.312Z,102192.88
2023-01-26T22:51:18.290Z,102188.50
2023-01-26T22:53:21.512Z,102191.97
2023-01-26T22:55:25.045Z,102194.53
2023-01-26T22:57:28.346Z,102197.97
2023-01-26T22:59:31.600Z,102203.16
2023-01-26T23:01:34.744Z,102205.69
2023-01-26T23:03:40.088Z,102197.91
2023-01-26T23:05:43.430Z,102207.41
2023-01-26T23:07:46.610Z,102201.34
2023-01-26T23:09:49.932Z,102208.25
2023-01-26T23:11:53.106Z,102208.25
2023-01-26T23:13:57.613Z,102210.78
2023-01-26T23:16:00.917Z,102213.34
2023-01-26T23:18:04.211Z,102208.16
2023-01-26T23:20:10.567Z,102208.16
2023-01-26T23:22:13.854Z,102199.56
2023-01-26T23:24:17.090Z,102206.53
2023-01-26T23:26:20.529Z,102208.34
2023-01-26T23:28:25.867Z,102203.25
2023-01-26T23:30:29.327Z,102205.03
2023-01-26T23:32:32.570Z,102211.19
2023-01-26T23:34:35.729Z,102208.63
2023-01-26T23:36:40.548Z,102208.69
2023-01-26T23:38:44.639Z,102206.09
2023-01-26T23:40:50.302Z,102212.13
2023-01-26T23:43:06.921Z,102211.22
2023-01-26T23:45:14.017Z,102212.06
2023-01-26T23:47:17.282Z,102213.78
2023-01-26T23:49:20.503Z,102222.41
2023-01-26T23:51:23.700Z,102222.38
2023-01-26T23:53:28.846Z,102217.19
2023-01-26T23:55:31.966Z,102221.47
2023-01-26T23:57:36.140Z,102224.94
2023-01-26T23:59:39.330Z,102222.38
